createdAt,value
2024-03-12T00:01:11.706Z,14.20
2024-03-12T00:06:42.567Z,14.44
2024-03-12T00:12:00.734Z,14.68
2024-03-12T00:17:29.457Z,14.73
2024-03-12T00:22:45.973Z,14.52
2024-03-12T00:28:03.151Z,14.77
2024-03-12T00:33:20.886Z,14.77
2024-03-12T00:38:23.227Z,14.70
2024-03-12T00:43:27.392Z,14.76
2024-03-12T00:48:26.283Z,14.84
2024-03-12T00:53:26.413Z,14.88
2024-03-12T00:58:27.534Z,14.50
2024-03-12T01:03:27.184Z,14.78
2024-03-12T01:08:32.490Z,15.20
2024-03-12T01:13:29.856Z,15.17
2024-03-12T01:18:27.954Z,15.14
2024-03-12T01:23:27.719Z,14.77
2024-03-12T01:28:29.095Z,15.16
2024-03-12T01:33:32.923Z,15.15
2024-03-12T01:38:43.247Z,14.92
2024-03-12T01:44:09.364Z,15.08
2024-03-12T01:49:14.922Z,15.01
2024-03-12T01:54:27.552Z,14.62
2024-03-12T01:59:30.952Z,14.82
2024-03-12T02:04:32.083Z,14.85
2024-03-12T02:09:50.534Z,14.90
2024-03-12T02:14:54.947Z,15.08
2024-03-12T02:20:00.944Z,15.18
2024-03-12T02:25:07.200Z,15.06
2024-03-12T02:30:17.189Z,15.00
2024-03-12T02:35:20.694Z,15.18
2024-03-12T02:40:26.991Z,14.72
2024-03-12T02:45:33.641Z,15.02
2024-03-12T02:50:42.108Z,15.15
2024-03-12T02:55:46.932Z,14.99
2024-03-12T03:00:57.162Z,14.94
2024-03-12T03:05:58.900Z,14.82
2024-03-12T03:11:10.492Z,15.19
2024-03-12T03:16:12.809Z,14.60
2024-03-12T03:21:22.694Z,15.10
2024-03-12T03:26:25.756Z,14.60
2024-03-12T03:31:30.360Z,15.30
2024-03-12T03:36:33.412Z,14.78
2024-03-12T03:41:39.794Z,14.63
2024-03-12T03:46:38.167Z,14.91
2024-03-12T03:51:38.769Z,15.25
2024-03-12T03:56:48.488Z,15.02
2024-03-12T04:01:53.318Z,15.12
2024-03-12T04:07:30.503Z,14.83
2024-03-12T04:12:56.897Z,14.64
2024-03-12T04:17:55.133Z,15.11
2024-03-12T04:22:55.429Z,15.20
2024-03-12T04:27:54.464Z,15.28
2024-03-12T04:33:00.073Z,15.20
2024-03-12T04:38:00.600Z,15.12
2024-03-12T04:42:58.926Z,15.24
2024-03-12T04:47:57.728Z,15.36
2024-03-12T04:52:55.876Z,15.54
2024-03-12T04:57:56.641Z,15.53
2024-03-12T05:20:59.847Z,14.78
2024-03-12T05:27:25.460Z,15.45
2024-03-12T05:32:50.211Z,15.22
2024-03-12T05:38:15.520Z,15.72
2024-03-12T05:43:37.566Z,15.99
2024-03-12T05:48:46.758Z,16.03
2024-03-12T05:54:22.483Z,16.33
2024-03-12T05:59:43.614Z,16.40
2024-03-12T06:04:47.346Z,16.57
2024-03-12T06:09:46.441Z,16.44
2024-03-12T06:14:55.046Z,16.29
2024-03-12T06:19:52.952Z,16.07
2024-03-12T06:24:54.813Z,15.61
2024-03-12T06:30:07.841Z,15.94
2024-03-12T06:35:14.846Z,15.86
2024-03-12T06:40:17.766Z,15.73
2024-03-12T06:45:29.114Z,15.61
2024-03-12T06:50:44.705Z,15.51
2024-03-12T06:56:10.433Z,15.48
2024-03-12T07:01:21.604Z,15.44
2024-03-12T07:06:20.941Z,15.41
2024-03-12T07:11:35.360Z,15.35
2024-03-12T07:17:14.899Z,15.29
2024-03-12T07:28:48.253Z,15.05
2024-03-12T07:34:20.773Z,14.83
2024-03-12T07:39:42.260Z,15.12
2024-03-12T07:45:34.051Z,15.01
2024-03-12T07:50:46.551Z,15.17
2024-03-12T07:56:04.922Z,15.07
2024-03-12T08:07:24.498Z,15.14
2024-03-12T08:12:45.348Z,15.21
2024-03-12T08:24:11.532Z,15.17
2024-03-12T08:29:08.852Z,15.69
2024-03-12T08:34:07.087Z,15.72
2024-03-12T08:39:11.929Z,15.79
2024-03-12T08:44:10.104Z,16.08
2024-03-12T08:49:11.671Z,16.17
2024-03-12T08:54:10.282Z,16.58
2024-03-12T08:59:09.521Z,16.83
2024-03-12T09:04:36.502Z,17.22
2024-03-12T09:11:14.144Z,17.38
2024-03-12T09:17:07.814Z,17.78
2024-03-12T09:28:20.245Z,17.67
2024-03-12T09:33:20.628Z,18.15
2024-03-12T09:38:31.385Z,18.12
2024-03-12T09:43:34.709Z,17.90
2024-03-12T09:48:34.951Z,17.81
2024-03-12T09:53:33.915Z,17.53
2024-03-12T09:58:31.412Z,17.17
2024-03-12T10:03:30.531Z,17.54
2024-03-12T10:08:31.864Z,17.63
2024-03-12T10:13:33.535Z,17.56
2024-03-12T10:19:01.595Z,17.90
2024-03-12T10:24:19.737Z,18.42
2024-03-12T10:29:19.941Z,18.71
2024-03-12T10:34:20.498Z,18.82
2024-03-12T10:39:29.787Z,18.97
2024-03-12T10:44:32.756Z,19.09
2024-03-12T10:49:31.392Z,19.11
2024-03-12T10:54:35.525Z,19.21
2024-03-12T10:59:38.292Z,20.35
2024-03-12T11:04:38.154Z,21.31
2024-03-12T11:09:39.008Z,21.83
2024-03-12T11:14:49.722Z,21.76
2024-03-12T11:19:53.109Z,22.55
2024-03-12T11:24:51.994Z,22.51
2024-03-12T11:30:19.404Z,22.23
2024-03-12T11:35:30.293Z,21.55
2024-03-12T11:40:29.505Z,21.69
2024-03-12T11:45:39.175Z,21.19
2024-03-12T11:50:40.162Z,21.20
2024-03-12T11:55:59.720Z,21.19
2024-03-12T12:00:59.576Z,20.86
2024-03-12T12:06:00.125Z,20.48
2024-03-12T12:11:05.997Z,20.73
2024-03-12T12:16:05.507Z,20.72
2024-03-12T12:21:09.910Z,20.40
2024-03-12T12:26:12.582Z,20.58
2024-03-12T12:31:17.006Z,20.68
2024-03-12T12:36:16.874Z,20.35
2024-03-12T12:41:14.741Z,20.63
2024-03-12T12:46:20.834Z,20.70
2024-03-12T12:51:20.802Z,20.56
2024-03-12T12:56:19.809Z,20.50
2024-03-12T13:01:24.826Z,20.47
2024-03-12T13:06:27.435Z,19.98
2024-03-12T13:11:30.314Z,20.17
2024-03-12T13:16:39.874Z,20.08
2024-03-12T13:21:38.171Z,20.01
2024-03-12T13:26:36.425Z,20.00
2024-03-12T13:31:34.917Z,19.80
2024-03-12T13:36:32.344Z,19.39
2024-03-12T13:41:30.083Z,19.66
2024-03-12T13:46:28.725Z,19.19
2024-03-12T13:51:27.007Z,19.17
2024-03-12T13:56:24.492Z,18.88
2024-03-12T14:01:23.619Z,19.00
2024-03-12T14:06:21.155Z,18.92
2024-03-12T14:11:25.924Z,18.78
2024-03-12T14:16:27.094Z,18.66
2024-03-12T14:21:28.880Z,18.65
2024-03-12T14:26:29.761Z,18.37
2024-03-12T14:31:28.335Z,18.35
2024-03-12T14:36:26.129Z,18.47
2024-03-12T14:41:27.797Z,18.12
2024-03-12T14:46:27.133Z,18.12
2024-03-12T14:51:24.849Z,17.90
2024-03-12T14:56:24.736Z,17.54
2024-03-12T15:01:23.683Z,17.54
2024-03-12T15:11:58.835Z,17.05
2024-03-12T15:17:35.340Z,16.66
2024-03-12T15:23:10.611Z,16.78
2024-03-12T15:28:11.260Z,16.39
2024-03-12T15:33:09.871Z,16.26
2024-03-12T15:38:13.737Z,16.83
2024-03-12T15:43:29.988Z,16.08
2024-03-12T15:48:41.830Z,16.47
2024-03-12T15:54:05.471Z,16.77
2024-03-12T15:59:10.893Z,16.52
2024-03-12T16:04:35.780Z,16.58
2024-03-12T16:09:36.295Z,16.38
2024-03-12T16:14:35.000Z,16.38
2024-03-12T16:19:44.328Z,16.32
2024-03-12T16:24:45.984Z,15.88
2024-03-12T16:29:56.952Z,16.25
2024-03-12T16:35:23.094Z,16.16
2024-03-12T16:40:55.799Z,15.93
2024-03-12T16:46:40.523Z,16.02
2024-03-12T17:05:35.042Z,15.55
2024-03-12T17:19:23.837Z,15.67
2024-03-12T17:32:35.712Z,15.76
2024-03-12T17:38:49.935Z,15.75
2024-03-12T19:20:38.736Z,15.29
